sensor_id;sensor_type;location;lat;lon;timestamp;P1;durP1;ratioP1;P2;durP2;ratioP2
15843;SDS011;50807;52.436;13.346;2023-06-19T00:00:00;7.37;;;6.87;;
15843;SDS011;50807;52.436;13.346;2023-06-19T00:00:31;7.20;;;6.60;;
15843;SDS011;50807;52.436;13.346;2023-06-19T00:01:02;6.67;;;6.07;;
15843;SDS011;50807;52.436;13.346;2023-06-19T00:01:33;6.40;;;5.90;;
15843;SDS011;50807;52.436;13.346;2023-06-19T00:02:04;6.30;;;5.77;;
15843;SDS011;50807;52.436;13.346;2023-06-19T00:02:36;6.60;;;6.10;;
15843;SDS011;50807;52.436;13.346;2023-06-19T00:03:07;6.50;;;6.00;;
15843;SDS011;50807;52.436;13.346;2023-06-19T00:03:38;6.00;;;5.60;;
15843;SDS011;50807;52.436;13.346;2023-06-19T00:04:09;6.30;;;5.90;;
15843;SDS011;50807;52.436;13.346;2023-06-19T00:04:41;6.87;;;6.37;;
15843;SDS011;50807;52.436;13.346;2023-06-19T00:05:12;6.73;;;6.20;;
15843;SDS011;50807;52.436;13.346;2023-06-19T00:05:43;6.37;;;5.87;;
15843;SDS011;50807;52.436;13.346;2023-06-19T00:06:15;6.77;;;6.27;;
15843;SDS011;50807;52.436;13.346;2023-06-19T00:06:45;6.83;;;6.33;;
15843;SDS011;50807;52.436;13.346;2023-06-19T00:07:16;6.90;;;6.40;;
15843;SDS011;50807;52.436;13.346;2023-06-19T00:07:49;6.77;;;6.27;;
15843;SDS011;50807;52.436;13.346;2023-06-19T00:08:19;6.47;;;5.97;;
15843;SDS011;50807;52.436;13.346;2023-06-19T00:08:51;6.83;;;6.33;;
15843;SDS011;50807;52.436;13.346;2023-06-19T00:09:22;7.50;;;6.90;;
15843;SDS011;50807;52.436;13.346;2023-06-19T00:09:52;7.13;;;6.60;;
15843;SDS011;50807;52.436;13.346;2023-06-19T00:10:23;6.97;;;6.47;;
15843;SDS011;50807;52.436;13.346;2023-06-19T00:10:55;7.23;;;6.70;;
15843;SDS011;50807;52.436;13.346;2023-06-19T00:11:26;7.50;;;6.90;;
15843;SDS011;50807;52.436;13.346;2023-06-19T00:11:56;7.00;;;6.40;;
15843;SDS011;50807;52.436;13.346;2023-06-19T00:12:29;6.87;;;6.37;;
15843;SDS011;50807;52.436;13.346;2023-06-19T00:13:00;6.80;;;6.30;;
15843;SDS011;50807;52.436;13.346;2023-06-19T00:13:31;6.87;;;6.37;;
15843;SDS011;50807;52.436;13.346;2023-06-19T00:14:05;7.10;;;6.60;;
15843;SDS011;50807;52.436;13.346;2023-06-19T00:14:36;6.67;;;6.17;;
15843;SDS011;50807;52.436;13.346;2023-06-19T00:15:07;6.97;;;6.47;;
15843;SDS011;50807;52.436;13.346;2023-06-19T00:15:39;6.97;;;6.37;;
15843;SDS011;50807;52.436;13.346;2023-06-19T00:16:11;6.67;;;6.17;;
15843;SDS011;50807;52.436;13.346;2023-06-19T00:16:42;7.40;;;6.70;;
15843;SDS011;50807;52.436;13.346;2023-06-19T00:17:13;6.63;;;6.07;;
15843;SDS011;50807;52.436;13.346;2023-06-19T00:17:46;6.60;;;6.10;;
15843;SDS011;50807;52.436;13.346;2023-06-19T00:18:17;7.43;;;6.93;;
15843;SDS011;50807;52.436;13.346;2023-06-19T00:18:49;6.90;;;6.40;;
15843;SDS011;50807;52.436;13.346;2023-06-19T00:19:21;7.30;;;6.77;;
15843;SDS011;50807;52.436;13.346;2023-06-19T00:19:52;6.90;;;6.40;;
15843;SDS011;50807;52.436;13.346;2023-06-19T00:20:23;6.53;;;6.10;;
15843;SDS011;50807;52.436;13.346;2023-06-19T00:20:55;6.60;;;6.10;;
15843;SDS011;50807;52.436;13.346;2023-06-19T00:21:26;6.90;;;6.40;;
15843;SDS011;50807;52.436;13.346;2023-06-19T00:21:57;8.43;;;6.57;;
15843;SDS011;50807;52.436;13.346;2023-06-19T00:22:28;7.27;;;6.67;;
15843;SDS011;50807;52.436;13.346;2023-06-19T00:22:59;7.43;;;6.83;;
15843;SDS011;50807;52.436;13.346;2023-06-19T00:23:30;6.70;;;6.20;;
15843;SDS011;50807;52.436;13.346;2023-06-19T00:24:01;7.23;;;6.63;;
15843;SDS011;50807;52.436;13.346;2023-06-19T00:24:32;7.17;;;6.67;;
15843;SDS011;50807;52.436;13.346;2023-06-19T00:25:03;7.13;;;6.50;;
15843;SDS011;50807;52.436;13.346;2023-06-19T00:25:34;7.40;;;6.90;;
15843;SDS011;50807;52.436;13.346;2023-06-19T00:26:05;7.03;;;6.50;;
15843;SDS011;50807;52.436;13.346;2023-06-19T00:26:37;5.40;;;4.90;;
15843;SDS011;50807;52.436;13.346;2023-06-19T00:27:08;7.27;;;6.77;;
15843;SDS011;50807;52.436;13.346;2023-06-19T00:27:38;6.97;;;6.47;;
15843;SDS011;50807;52.436;13.346;2023-06-19T00:28:10;6.30;;;5.90;;
15843;SDS011;50807;52.436;13.346;2023-06-19T00:28:43;7.30;;;6.70;;
15843;SDS011;50807;52.436;13.346;2023-06-19T00:29:16;7.07;;;6.57;;
15843;SDS011;50807;52.436;13.346;2023-06-19T00:29:48;6.83;;;6.33;;
15843;SDS011;50807;52.436;13.346;2023-06-19T00:30:19;6.70;;;6.23;;
15843;SDS011;50807;52.436;13.346;2023-06-19T00:30:50;6.90;;;6.30;;
15843;SDS011;50807;52.436;13.346;2023-06-19T00:31:21;7.03;;;6.53;;
15843;SDS011;50807;52.436;13.346;2023-06-19T00:31:53;6.83;;;6.33;;
15843;SDS011;50807;52.436;13.346;2023-06-19T00:32:24;6.53;;;6.03;;
15843;SDS011;50807;52.436;13.346;2023-06-19T00:32:55;6.97;;;6.47;;
15843;SDS011;50807;52.436;13.346;2023-06-19T00:33:27;7.70;;;7.10;;
15843;SDS011;50807;52.436;13.346;2023-06-19T00:33:59;6.93;;;6.43;;
15843;SDS011;50807;52.436;13.346;2023-06-19T00:34:29;6.37;;;5.97;;
15843;SDS011;50807;52.436;13.346;2023-06-19T00:35:00;6.10;;;5.57;;
15843;SDS011;50807;52.436;13.346;2023-06-19T00:35:33;7.40;;;6.80;;
15843;SDS011;50807;52.436;13.346;2023-06-19T00:36:08;7.03;;;6.50;;
15843;SDS011;50807;52.436;13.346;2023-06-19T00:36:39;7.63;;;7.00;;
15843;SDS011;50807;52.436;13.346;2023-06-19T00:37:11;6.80;;;6.30;;
15843;SDS011;50807;52.436;13.346;2023-06-19T00:37:43;6.43;;;5.83;;
15843;SDS011;50807;52.436;13.346;2023-06-19T00:38:14;6.90;;;6.30;;
15843;SDS011;50807;52.436;13.346;2023-06-19T00:38:46;7.27;;;6.77;;
15843;SDS011;50807;52.436;13.346;2023-06-19T00:39:17;7.23;;;6.63;;
15843;SDS011;50807;52.436;13.346;2023-06-19T00:39:48;7.40;;;6.90;;
15843;SDS011;50807;52.436;13.346;2023-06-19T00:40:24;6.40;;;5.97;;
15843;SDS011;50807;52.436;13.346;2023-06-19T00:40:58;6.77;;;6.27;;
15843;SDS011;50807;52.436;13.346;2023-06-19T00:41:29;7.43;;;6.93;;
15843;SDS011;50807;52.436;13.346;2023-06-19T00:42:03;7.10;;;6.60;;
15843;SDS011;50807;52.436;13.346;2023-06-19T00:42:34;8.00;;;7.30;;
15843;SDS011;50807;52.436;13.346;2023-06-19T00:43:05;6.33;;;5.87;;
15843;SDS011;50807;52.436;13.346;2023-06-19T00:43:37;6.73;;;6.33;;
15843;SDS011;50807;52.436;13.346;2023-06-19T00:44:08;7.00;;;6.50;;
15843;SDS011;50807;52.436;13.346;2023-06-19T00:44:40;6.77;;;6.27;;
15843;SDS011;50807;52.436;13.346;2023-06-19T00:45:13;6.20;;;5.80;;
15843;SDS011;50807;52.436;13.346;2023-06-19T00:45:44;6.93;;;6.43;;
15843;SDS011;50807;52.436;13.346;2023-06-19T00:46:15;7.00;;;6.50;;
15843;SDS011;50807;52.436;13.346;2023-06-19T00:46:46;6.87;;;6.37;;
15843;SDS011;50807;52.436;13.346;2023-06-19T00:47:21;5.80;;;5.40;;
15843;SDS011;50807;52.436;13.346;2023-06-19T00:47:53;6.77;;;6.27;;
15843;SDS011;50807;52.436;13.346;2023-06-19T00:48:26;7.17;;;6.57;;
15843;SDS011;50807;52.436;13.346;2023-06-19T00:48:58;6.53;;;6.10;;
15843;SDS011;50807;52.436;13.346;2023-06-19T00:49:29;6.67;;;6.17;;
15843;SDS011;50807;52.436;13.346;2023-06-19T00:50:01;6.33;;;5.93;;
15843;SDS011;50807;52.436;13.346;2023-06-19T00:50:33;6.40;;;6.00;;
15843;SDS011;50807;52.436;13.346;2023-06-19T00:51:04;6.37;;;5.97;;
15843;SDS011;50807;52.436;13.346;2023-06-19T00:51:35;7.07;;;6.40;;
15843;SDS011;50807;52.436;13.346;2023-06-19T00:52:07;7.03;;;6.53;;
15843;SDS011;50807;52.436;13.346;2023-06-19T00:52:38;5.73;;;5.33;;
15843;SDS011;50807;52.436;13.346;2023-06-19T00:53:09;6.80;;;6.40;;
15843;SDS011;50807;52.436;13.346;2023-06-19T00:53:41;7.43;;;6.73;;
15843;SDS011;50807;52.436;13.346;2023-06-19T00:54:12;6.73;;;6.23;;
15843;SDS011;50807;52.436;13.346;2023-06-19T00:54:44;6.53;;;6.10;;
15843;SDS011;50807;52.436;13.346;2023-06-19T00:55:15;6.73;;;6.23;;
15843;SDS011;50807;52.436;13.346;2023-06-19T00:55:48;6.50;;;5.90;;
15843;SDS011;50807;52.436;13.346;2023-06-19T00:56:21;7.03;;;6.53;;
15843;SDS011;50807;52.436;13.346;2023-06-19T00:56:52;6.97;;;6.47;;
15843;SDS011;50807;52.436;13.346;2023-06-19T00:57:24;7.07;;;6.57;;
15843;SDS011;50807;52.436;13.346;2023-06-19T00:57:55;7.10;;;6.60;;
15843;SDS011;50807;52.436;13.346;2023-06-19T00:58:26;6.63;;;6.17;;
15843;SDS011;50807;52.436;13.346;2023-06-19T00:58:58;6.17;;;5.77;;
15843;SDS011;50807;52.436;13.346;2023-06-19T00:59:29;6.67;;;6.17;;
15843;SDS011;50807;52.436;13.346;2023-06-19T01:00:02;7.27;;;6.57;;
15843;SDS011;50807;52.436;13.346;2023-06-19T01:00:35;7.00;;;6.50;;
15843;SDS011;50807;52.436;13.346;2023-06-19T01:01:07;6.80;;;6.20;;
15843;SDS011;50807;52.436;13.346;2023-06-19T01:01:38;6.77;;;6.37;;
15843;SDS011;50807;52.436;13.346;2023-06-19T01:02:09;6.50;;;6.00;;
15843;SDS011;50807;52.436;13.346;2023-06-19T01:02:41;6.73;;;6.23;;
15843;SDS011;50807;52.436;13.346;2023-06-19T01:03:12;6.17;;;5.77;;
15843;SDS011;50807;52.436;13.346;2023-06-19T01:03:43;6.40;;;6.00;;
15843;SDS011;50807;52.436;13.346;2023-06-19T01:04:14;6.73;;;6.23;;
15843;SDS011;50807;52.436;13.346;2023-06-19T01:04:45;6.77;;;6.27;;
15843;SDS011;50807;52.436;13.346;2023-06-19T01:05:16;6.40;;;6.00;;
15843;SDS011;50807;52.436;13.346;2023-06-19T01:05:49;6.87;;;6.47;;
15843;SDS011;50807;52.436;13.346;2023-06-19T01:06:25;6.97;;;6.47;;
15843;SDS011;50807;52.436;13.346;2023-06-19T01:07:08;7.00;;;6.50;;
15843;SDS011;50807;52.436;13.346;2023-06-19T01:07:46;7.00;;;6.50;;
15843;SDS011;50807;52.436;13.346;2023-06-19T01:08:33;6.33;;;5.93;;
15843;SDS011;50807;52.436;13.346;2023-06-19T01:09:18;6.10;;;5.70;;
15843;SDS011;50807;52.436;13.346;2023-06-19T01:09:52;6.83;;;6.33;;
15843;SDS011;50807;52.436;13.346;2023-06-19T01:10:30;6.80;;;6.30;;
15843;SDS011;50807;52.436;13.346;2023-06-19T01:11:08;6.43;;;6.03;;
15843;SDS011;50807;52.436;13.346;2023-06-19T01:11:43;6.27;;;5.87;;
15843;SDS011;50807;52.436;13.346;2023-06-19T01:12:22;6.70;;;6.30;;
15843;SDS011;50807;52.436;13.346;2023-06-19T01:13:02;7.00;;;6.50;;
15843;SDS011;50807;52.436;13.346;2023-06-19T01:14:31;6.50;;;6.00;;
15843;SDS011;50807;52.436;13.346;2023-06-19T01:15:11;6.40;;;6.00;;
15843;SDS011;50807;52.436;13.346;2023-06-19T01:15:43;6.63;;;6.13;;
15843;SDS011;50807;52.436;13.346;2023-06-19T01:16:14;6.83;;;6.33;;
15843;SDS011;50807;52.436;13.346;2023-06-19T01:16:47;6.07;;;5.60;;
15843;SDS011;50807;52.436;13.346;2023-06-19T01:17:18;6.10;;;5.70;;
15843;SDS011;50807;52.436;13.346;2023-06-19T01:17:50;6.60;;;6.10;;
15843;SDS011;50807;52.436;13.346;2023-06-19T01:18:22;6.40;;;6.00;;
15843;SDS011;50807;52.436;13.346;2023-06-19T01:18:55;6.70;;;6.20;;
15843;SDS011;50807;52.436;13.346;2023-06-19T01:19:26;6.47;;;6.07;;
15843;SDS011;50807;52.436;13.346;2023-06-19T01:19:59;6.43;;;6.03;;
15843;SDS011;50807;52.436;13.346;2023-06-19T01:20:36;7.23;;;6.73;;
15843;SDS011;50807;52.436;13.346;2023-06-19T01:21:11;6.63;;;6.13;;
15843;SDS011;50807;52.436;13.346;2023-06-19T01:21:44;6.47;;;6.07;;
15843;SDS011;50807;52.436;13.346;2023-06-19T01:22:23;6.63;;;6.23;;
15843;SDS011;50807;52.436;13.346;2023-06-19T01:22:56;6.00;;;5.60;;
15843;SDS011;50807;52.436;13.346;2023-06-19T01:23:28;6.97;;;6.47;;
15843;SDS011;50807;52.436;13.346;2023-06-19T01:23:58;7.40;;;6.80;;
15843;SDS011;50807;52.436;13.346;2023-06-19T01:24:29;6.73;;;6.23;;
15843;SDS011;50807;52.436;13.346;2023-06-19T01:25:01;6.77;;;6.27;;
15843;SDS011;50807;52.436;13.346;2023-06-19T01:25:31;7.03;;;6.53;;
15843;SDS011;50807;52.436;13.346;2023-06-19T01:26:02;6.93;;;6.43;;
15843;SDS011;50807;52.436;13.346;2023-06-19T01:26:34;6.20;;;5.80;;
15843;SDS011;50807;52.436;13.346;2023-06-19T01:27:05;6.90;;;6.40;;
15843;SDS011;50807;52.436;13.346;2023-06-19T01:27:36;6.63;;;6.23;;
15843;SDS011;50807;52.436;13.346;2023-06-19T01:28:10;6.60;;;6.10;;
15843;SDS011;50807;52.436;13.346;2023-06-19T01:28:43;6.90;;;6.40;;
15843;SDS011;50807;52.436;13.346;2023-06-19T01:29:15;6.87;;;6.37;;
15843;SDS011;50807;52.436;13.346;2023-06-19T01:29:48;6.80;;;6.30;;
15843;SDS011;50807;52.436;13.346;2023-06-19T01:30:20;6.63;;;6.23;;
15843;SDS011;50807;52.436;13.346;2023-06-19T01:30:51;6.87;;;6.37;;
15843;SDS011;50807;52.436;13.346;2023-06-19T01:31:26;6.93;;;6.47;;
15843;SDS011;50807;52.436;13.346;2023-06-19T01:32:04;5.97;;;5.57;;
15843;SDS011;50807;52.436;13.346;2023-06-19T01:32:46;6.80;;;6.40;;
15843;SDS011;50807;52.436;13.346;2023-06-19T01:33:25;6.90;;;6.40;;
15843;SDS011;50807;52.436;13.346;2023-06-19T01:34:00;6.50;;;5.97;;
15843;SDS011;50807;52.436;13.346;2023-06-19T01:34:33;6.60;;;6.00;;
15843;SDS011;50807;52.436;13.346;2023-06-19T01:35:06;6.77;;;6.30;;
15843;SDS011;50807;52.436;13.346;2023-06-19T01:35:40;7.40;;;6.90;;
15843;SDS011;50807;52.436;13.346;2023-06-19T01:36:14;6.40;;;6.00;;
15843;SDS011;50807;52.436;13.346;2023-06-19T01:36:47;6.73;;;6.30;;
15843;SDS011;50807;52.436;13.346;2023-06-19T01:37:19;6.90;;;6.40;;
15843;SDS011;50807;52.436;13.346;2023-06-19T01:37:53;6.37;;;5.97;;
15843;SDS011;50807;52.436;13.346;2023-06-19T01:38:26;6.90;;;6.40;;
15843;SDS011;50807;52.436;13.346;2023-06-19T01:38:59;6.80;;;6.30;;
15843;SDS011;50807;52.436;13.346;2023-06-19T01:39:30;6.53;;;6.13;;
15843;SDS011;50807;52.436;13.346;2023-06-19T01:40:05;6.23;;;5.73;;
15843;SDS011;50807;52.436;13.346;2023-06-19T01:40:41;7.03;;;6.53;;
15843;SDS011;50807;52.436;13.346;2023-06-19T01:41:12;6.80;;;6.30;;
15843;SDS011;50807;52.436;13.346;2023-06-19T01:41:46;6.80;;;6.20;;
15843;SDS011;50807;52.436;13.346;2023-06-19T01:42:18;6.87;;;6.37;;
15843;SDS011;50807;52.436;13.346;2023-06-19T01:42:49;7.07;;;6.47;;
15843;SDS011;50807;52.436;13.346;2023-06-19T01:43:24;6.63;;;6.23;;
15843;SDS011;50807;52.436;13.346;2023-06-19T01:43:57;6.30;;;5.90;;
15843;SDS011;50807;52.436;13.346;2023-06-19T01:44:29;6.30;;;5.90;;
15843;SDS011;50807;52.436;13.346;2023-06-19T01:45:01;6.90;;;6.40;;
15843;SDS011;50807;52.436;13.346;2023-06-19T01:45:33;6.20;;;5.80;;
15843;SDS011;50807;52.436;13.346;2023-06-19T01:46:04;6.97;;;6.47;;
15843;SDS011;50807;52.436;13.346;2023-06-19T01:46:35;7.00;;;6.50;;
15843;SDS011;50807;52.436;13.346;2023-06-19T01:47:08;7.07;;;6.57;;
15843;SDS011;50807;52.436;13.346;2023-06-19T01:47:40;6.83;;;6.30;;
15843;SDS011;50807;52.436;13.346;2023-06-19T01:48:11;7.33;;;6.83;;
15843;SDS011;50807;52.436;13.346;2023-06-19T01:48:45;6.70;;;6.20;;
15843;SDS011;50807;52.436;13.346;2023-06-19T01:49:16;6.50;;;6.10;;
15843;SDS011;50807;52.436;13.346;2023-06-19T01:49:47;6.73;;;6.23;;
15843;SDS011;50807;52.436;13.346;2023-06-19T01:50:18;7.03;;;6.53;;
15843;SDS011;50807;52.436;13.346;2023-06-19T01:50:51;7.70;;;7.00;;
15843;SDS011;50807;52.436;13.346;2023-06-19T01:51:21;7.27;;;6.77;;
15843;SDS011;50807;52.436;13.346;2023-06-19T01:51:53;7.17;;;6.67;;
15843;SDS011;50807;52.436;13.346;2023-06-19T01:52:25;7.40;;;6.80;;
15843;SDS011;50807;52.436;13.346;2023-06-19T01:52:58;7.23;;;6.73;;
15843;SDS011;50807;52.436;13.346;2023-06-19T01:53:29;7.67;;;7.07;;
15843;SDS011;50807;52.436;13.346;2023-06-19T01:54:01;7.27;;;6.67;;
15843;SDS011;50807;52.436;13.346;2023-06-19T01:54:32;7.70;;;7.13;;
15843;SDS011;50807;52.436;13.346;2023-06-19T01:55:04;7.70;;;7.10;;
15843;SDS011;50807;52.436;13.346;2023-06-19T01:55:36;6.73;;;6.23;;
15843;SDS011;50807;52.436;13.346;2023-06-19T01:56:07;6.93;;;6.43;;
15843;SDS011;50807;52.436;13.346;2023-06-19T01:56:38;7.53;;;7.03;;
15843;SDS011;50807;52.436;13.346;2023-06-19T01:57:10;7.33;;;6.70;;
15843;SDS011;50807;52.436;13.346;2023-06-19T01:57:42;7.00;;;6.50;;
15843;SDS011;50807;52.436;13.346;2023-06-19T01:58:13;6.83;;;6.33;;
15843;SDS011;50807;52.436;13.346;2023-06-19T01:58:44;7.10;;;6.60;;
15843;SDS011;50807;52.436;13.346;2023-06-19T01:59:15;7.63;;;7.07;;
15843;SDS011;50807;52.436;13.346;2023-06-19T01:59:46;7.77;;;7.27;;
15843;SDS011;50807;52.436;13.346;2023-06-19T02:00:17;7.20;;;6.70;;
15843;SDS011;50807;52.436;13.346;2023-06-19T02:00:49;6.97;;;6.47;;
15843;SDS011;50807;52.436;13.346;2023-06-19T02:01:20;7.30;;;6.80;;
15843;SDS011;50807;52.436;13.346;2023-06-19T02:01:51;7.53;;;7.03;;
15843;SDS011;50807;52.436;13.346;2023-06-19T02:02:22;7.60;;;7.00;;
15843;SDS011;50807;52.436;13.346;2023-06-19T02:02:53;7.47;;;6.93;;
15843;SDS011;50807;52.436;13.346;2023-06-19T02:03:24;7.63;;;7.07;;
15843;SDS011;50807;52.436;13.346;2023-06-19T02:03:55;7.70;;;7.10;;
15843;SDS011;50807;52.436;13.346;2023-06-19T02:04:26;7.60;;;7.00;;
15843;SDS011;50807;52.436;13.346;2023-06-19T02:04:57;7.07;;;6.60;;
15843;SDS011;50807;52.436;13.346;2023-06-19T02:05:28;7.50;;;7.00;;
15843;SDS011;50807;52.436;13.346;2023-06-19T02:05:59;7.30;;;6.80;;
15843;SDS011;50807;52.436;13.346;2023-06-19T02:06:30;7.63;;;7.03;;
15843;SDS011;50807;52.436;13.346;2023-06-19T02:07:02;7.47;;;6.97;;
15843;SDS011;50807;52.436;13.346;2023-06-19T02:07:33;7.37;;;6.80;;
15843;SDS011;50807;52.436;13.346;2023-06-19T02:08:05;7.67;;;7.07;;
15843;SDS011;50807;52.436;13.346;2023-06-19T02:08:37;7.47;;;6.97;;
15843;SDS011;50807;52.436;13.346;2023-06-19T02:09:08;8.50;;;7.80;;
15843;SDS011;50807;52.436;13.346;2023-06-19T02:09:38;7.70;;;7.00;;
15843;SDS011;50807;52.436;13.346;2023-06-19T02:10:11;7.77;;;7.17;;
15843;SDS011;50807;52.436;13.346;2023-06-19T02:10:41;8.50;;;7.83;;
15843;SDS011;50807;52.436;13.346;2023-06-19T02:11:12;8.30;;;7.70;;
15843;SDS011;50807;52.436;13.346;2023-06-19T02:11:44;9.07;;;8.37;;
15843;SDS011;50807;52.436;13.346;2023-06-19T02:12:14;8.03;;;7.43;;
15843;SDS011;50807;52.436;13.346;2023-06-19T02:12:45;7.60;;;7.10;;
15843;SDS011;50807;52.436;13.346;2023-06-19T02:13:16;8.63;;;8.03;;
15843;SDS011;50807;52.436;13.346;2023-06-19T02:13:48;8.70;;;8.10;;
15843;SDS011;50807;52.436;13.346;2023-06-19T02:14:18;8.33;;;7.73;;
15843;SDS011;50807;52.436;13.346;2023-06-19T02:14:49;8.17;;;7.57;;
15843;SDS011;50807;52.436;13.346;2023-06-19T02:15:21;8.47;;;7.87;;
15843;SDS011;50807;52.436;13.346;2023-06-19T02:15:52;8.83;;;8.13;;
15843;SDS011;50807;52.436;13.346;2023-06-19T02:16:22;8.27;;;7.67;;
15843;SDS011;50807;52.436;13.346;2023-06-19T02:16:54;8.37;;;7.77;;
15843;SDS011;50807;52.436;13.346;2023-06-19T02:17:25;8.27;;;7.67;;
15843;SDS011;50807;52.436;13.346;2023-06-19T02:17:56;8.37;;;7.77;;
15843;SDS011;50807;52.436;13.346;2023-06-19T02:18:27;8.60;;;7.93;;
15843;SDS011;50807;52.436;13.346;2023-06-19T02:18:58;8.83;;;8.13;;
15843;SDS011;50807;52.436;13.346;2023-06-19T02:19:30;8.47;;;7.87;;
15843;SDS011;50807;52.436;13.346;2023-06-19T02:20:01;8.50;;;7.90;;
15843;SDS011;50807;52.436;13.346;2023-06-19T02:20:32;8.10;;;7.50;;
15843;SDS011;50807;52.436;13.346;2023-06-19T02:21:04;8.50;;;7.90;;
15843;SDS011;50807;52.436;13.346;2023-06-19T02:21:35;8.47;;;7.77;;
15843;SDS011;50807;52.436;13.346;2023-06-19T02:22:05;8.47;;;7.87;;
15843;SDS011;50807;52.436;13.346;2023-06-19T02:22:37;8.63;;;8.00;;
15843;SDS011;50807;52.436;13.346;2023-06-19T02:23:09;9.20;;;8.40;;
15843;SDS011;50807;52.436;13.346;2023-06-19T02:23:40;8.93;;;8.23;;
15843;SDS011;50807;52.436;13.346;2023-06-19T02:24:11;8.67;;;8.07;;
15843;SDS011;50807;52.436;13.346;2023-06-19T02:24:43;8.90;;;8.20;;
15843;SDS011;50807;52.436;13.346;2023-06-19T02:25:14;8.60;;;7.90;;
15843;SDS011;50807;52.436;13.346;2023-06-19T02:25:45;8.87;;;8.07;;
15843;SDS011;50807;52.436;13.346;2023-06-19T02:26:17;8.90;;;8.27;;
15843;SDS011;50807;52.436;13.346;2023-06-19T02:26:47;9.07;;;8.37;;
15843;SDS011;50807;52.436;13.346;2023-06-19T02:27:18;8.97;;;8.27;;
15843;SDS011;50807;52.436;13.346;2023-06-19T02:27:49;8.70;;;8.10;;
15843;SDS011;50807;52.436;13.346;2023-06-19T02:28:21;9.03;;;8.43;;
15843;SDS011;50807;52.436;13.346;2023-06-19T02:28:51;8.70;;;8.10;;
15843;SDS011;50807;52.436;13.346;2023-06-19T02:29:22;8.30;;;7.70;;
15843;SDS011;50807;52.436;13.346;2023-06-19T02:29:54;9.30;;;8.33;;
15843;SDS011;50807;52.436;13.346;2023-06-19T02:30:24;8.33;;;7.73;;
15843;SDS011;50807;52.436;13.346;2023-06-19T02:30:55;9.43;;;8.73;;
15843;SDS011;50807;52.436;13.346;2023-06-19T02:31:27;9.30;;;8.60;;
15843;SDS011;50807;52.436;13.346;2023-06-19T02:31:57;9.03;;;8.43;;
15843;SDS011;50807;52.436;13.346;2023-06-19T02:32:28;8.50;;;7.90;;
15843;SDS011;50807;52.436;13.346;2023-06-19T02:32:59;9.10;;;8.40;;
15843;SDS011;50807;52.436;13.346;2023-06-19T02:33:30;8.30;;;7.70;;
15843;SDS011;50807;52.436;13.346;2023-06-19T02:34:02;9.40;;;8.70;;
15843;SDS011;50807;52.436;13.346;2023-06-19T02:34:33;8.77;;;8.17;;
15843;SDS011;50807;52.436;13.346;2023-06-19T02:35:05;8.63;;;8.03;;
15843;SDS011;50807;52.436;13.346;2023-06-19T02:35:40;9.13;;;8.43;;
15843;SDS011;50807;52.436;13.346;2023-06-19T02:36:11;9.57;;;8.77;;
15843;SDS011;50807;52.436;13.346;2023-06-19T02:36:42;8.27;;;7.57;;
15843;SDS011;50807;52.436;13.346;2023-06-19T02:37:13;10.00;;;9.30;;
15843;SDS011;50807;52.436;13.346;2023-06-19T02:37:45;8.60;;;7.90;;
15843;SDS011;50807;52.436;13.346;2023-06-19T02:38:17;8.70;;;8.00;;
15843;SDS011;50807;52.436;13.346;2023-06-19T02:38:51;8.83;;;8.23;;
15843;SDS011;50807;52.436;13.346;2023-06-19T02:39:22;8.97;;;8.27;;
15843;SDS011;50807;52.436;13.346;2023-06-19T02:39:54;8.50;;;7.90;;
15843;SDS011;50807;52.436;13.346;2023-06-19T02:40:25;9.00;;;8.30;;
15843;SDS011;50807;52.436;13.346;2023-06-19T02:40:55;8.80;;;8.00;;
15843;SDS011;50807;52.436;13.346;2023-06-19T02:41:30;9.07;;;8.37;;
15843;SDS011;50807;52.436;13.346;2023-06-19T02:42:01;9.20;;;8.30;;
15843;SDS011;50807;52.436;13.346;2023-06-19T02:42:31;9.27;;;8.53;;
15843;SDS011;50807;52.436;13.346;2023-06-19T02:43:02;8.40;;;7.73;;
15843;SDS011;50807;52.436;13.346;2023-06-19T02:43:34;8.53;;;7.93;;
15843;SDS011;50807;52.436;13.346;2023-06-19T02:44:05;8.90;;;8.20;;
15843;SDS011;50807;52.436;13.346;2023-06-19T02:44:35;9.00;;;8.30;;
15843;SDS011;50807;52.436;13.346;2023-06-19T02:45:06;8.97;;;8.33;;
15843;SDS011;50807;52.436;13.346;2023-06-19T02:45:39;9.50;;;8.77;;
15843;SDS011;50807;52.436;13.346;2023-06-19T02:46:09;9.37;;;8.67;;
15843;SDS011;50807;52.436;13.346;2023-06-19T02:46:40;8.90;;;8.30;;
15843;SDS011;50807;52.436;13.346;2023-06-19T02:47:12;9.33;;;8.63;;
15843;SDS011;50807;52.436;13.346;2023-06-19T02:47:43;9.60;;;8.90;;
15843;SDS011;50807;52.436;13.346;2023-06-19T02:48:13;9.40;;;8.70;;
15843;SDS011;50807;52.436;13.346;2023-06-19T02:48:44;8.47;;;7.87;;
15843;SDS011;50807;52.436;13.346;2023-06-19T02:49:16;9.50;;;8.67;;
15843;SDS011;50807;52.436;13.346;2023-06-19T02:49:46;9.10;;;8.50;;
15843;SDS011;50807;52.436;13.346;2023-06-19T02:50:17;10.00;;;9.10;;
15843;SDS011;50807;52.436;13.346;2023-06-19T02:50:49;9.03;;;8.33;;
15843;SDS011;50807;52.436;13.346;2023-06-19T02:51:20;9.17;;;8.37;;
15843;SDS011;50807;52.436;13.346;2023-06-19T02:51:50;8.63;;;8.03;;
15843;SDS011;50807;52.436;13.346;2023-06-19T02:52:21;9.17;;;8.47;;
15843;SDS011;50807;52.436;13.346;2023-06-19T02:52:53;9.13;;;8.53;;
15843;SDS011;50807;52.436;13.346;2023-06-19T02:53:25;9.60;;;8.83;;
15843;SDS011;50807;52.436;13.346;2023-06-19T02:53:56;8.93;;;8.33;;
15843;SDS011;50807;52.436;13.346;2023-06-19T02:54:27;9.33;;;8.63;;
15843;SDS011;50807;52.436;13.346;2023-06-19T02:54:58;8.47;;;7.83;;
15843;SDS011;50807;52.436;13.346;2023-06-19T02:55:29;9.17;;;8.53;;
15843;SDS011;50807;52.436;13.346;2023-06-19T02:55:59;8.93;;;8.13;;
15843;SDS011;50807;52.436;13.346;2023-06-19T02:56:31;9.60;;;8.80;;
15843;SDS011;50807;52.436;13.346;2023-06-19T02:57:02;9.83;;;9.13;;
15843;SDS011;50807;52.436;13.346;2023-06-19T02:57:33;9.23;;;8.53;;
15843;SDS011;50807;52.436;13.346;2023-06-19T02:58:04;9.60;;;8.80;;
15843;SDS011;50807;52.436;13.346;2023-06-19T02:58:36;9.47;;;8.67;;
15843;SDS011;50807;52.436;13.346;2023-06-19T02:59:07;9.93;;;9.23;;
15843;SDS011;50807;52.436;13.346;2023-06-19T02:59:38;9.50;;;8.80;;
15843;SDS011;50807;52.436;13.346;2023-06-19T03:00:09;9.93;;;9.23;;
15843;SDS011;50807;52.436;13.346;2023-06-19T03:00:42;9.80;;;9.10;;
15843;SDS011;50807;52.436;13.346;2023-06-19T03:01:13;9.53;;;8.83;;
15843;SDS011;50807;52.436;13.346;2023-06-19T03:01:44;10.03;;;9.23;;
15843;SDS011;50807;52.436;13.346;2023-06-19T03:02:15;9.67;;;8.87;;
15843;SDS011;50807;52.436;13.346;2023-06-19T03:02:46;9.37;;;8.67;;
15843;SDS011;50807;52.436;13.346;2023-06-19T03:03:18;9.50;;;8.70;;
15843;SDS011;50807;52.436;13.346;2023-06-19T03:03:49;8.93;;;8.33;;
15843;SDS011;50807;52.436;13.346;2023-06-19T03:04:22;9.70;;;8.90;;
15843;SDS011;50807;52.436;13.346;2023-06-19T03:04:53;9.23;;;8.53;;
15843;SDS011;50807;52.436;13.346;2023-06-19T03:05:24;9.77;;;9.07;;
15843;SDS011;50807;52.436;13.346;2023-06-19T03:05:57;9.30;;;8.60;;
15843;SDS011;50807;52.436;13.346;2023-06-19T03:06:29;9.07;;;8.30;;
15843;SDS011;50807;52.436;13.346;2023-06-19T03:07:00;9.80;;;9.00;;
15843;SDS011;50807;52.436;13.346;2023-06-19T03:07:32;9.63;;;8.93;;
15843;SDS011;50807;52.436;13.346;2023-06-19T03:08:03;10.03;;;9.33;;
15843;SDS011;50807;52.436;13.346;2023-06-19T03:08:36;9.30;;;8.60;;
15843;SDS011;50807;52.436;13.346;2023-06-19T03:09:08;9.87;;;9.07;;
15843;SDS011;50807;52.436;13.346;2023-06-19T03:09:42;9.53;;;8.80;;
15843;SDS011;50807;52.436;13.346;2023-06-19T03:10:13;9.00;;;8.30;;